Pagrindinis puslapis
METAR-TAF:

METAR-TAF

Oro uostai :

Savonlinna, Suomija

platuma: 61-57N, ilguma: 028-57E, Aukštis: 95 m

Dabartinis oras

Ataskaita buvo paskelbta 31 minutes, ne 06:20 UTC
Vėjas 8 kt iš Šiaurės, svyruoja nuo Šiaurės/Šiaurės Vakarų ir Šiaurės/Šiaurės Rytų
Temperatūra 6°C
Drėgmė 87%
Slėgis 1014 hPa
Matomumas 10 km arba daugiau
Su prošvaistėmis ne aukštis 1700 ft

METAR: EFSA 180620Z AUTO 36008KT 330V030 9999 BKN017 06/04 Q1014

Laikas: 09:51 (06:51 UTC)


TAF: trūkstamas

Orai ataskaitas ir orų prognozės (METAR, TAF).

turimą stotys yra geltonos ir raudonos taškus žemėlapyje.

Perkelti pele per norėdami pamatyti stoties vardą.

Tada spustelėkite, norėdami matyti oro stebėjimo ir prognozės.

Norėdami pakeisti žemėlapį: spustelėkite ant žalios mygtukų su juodo kryžiaus žemyn,; žalią mygtuką su brūkšneliu, jei norite nutolinti; arba žalių rodyklių gretimoms žemėlapius.


METAR-TAF: